Hebron, New Hampshire
Current Conditions -  °F | °C
As of 2:55 PM on Thursday 27 Nov 2014 (Local Time) from K1P1 Reporting Station
Overcast Overcast  
Wind Chill: 21°   Ceiling: 2800
Heat Index: 29°   Visibility: 10mi
Dew Point: 25°   Wind: 9mph
Humidity: 83%   Direction: 280°W
Pressure: 29.95"   Gusts: 17mph
Location:  43.69°N, 71.81°W
Report Text: K1P1 271955Z AUTO 28008G15KT 10SM OVC028 M01/M04 A2995 RMK AO2 T10141040
Loading
Personal Weather Stations






























Interactive Weather Map New forecast layout! Learn more

10-Day Weather Forecast

Advertisements
Track Severe Weather on mobile